Time;durP1;ratioP1;P1;durP2;ratioP2;P2;SDS_P1;SDS_P2;PMS_P1;PMS_P2;Temp;Humidity;BMP_temperature;BMP_pressure;BME280_temperature;BME280_humidity;BME280_pressure;Samples;Min_cycle;Max_cycle;Signal;HPM_P1;HPM_P2
2024/04/01 00:01:09;;;;;;;13.27;6.10;;;16.00;81.70;;;;;;4971071;28;20035;-68
2024/04/01 00:03:35;;;;;;;18.55;7.47;;;16.00;81.70;;;;;;4970555;28;20038;-67
2024/04/01 00:06:01;;;;;;;15.88;6.28;;;16.10;82.20;;;;;;4970798;28;20035;-68
2024/04/01 00:08:28;;;;;;;15.00;6.65;;;15.90;82.70;;;;;;4961321;28;20046;-70
2024/04/01 00:11:28;;;;;;;15.35;6.00;;;16.00;82.20;;;;;;4975995;28;20038;-67
2024/04/01 00:13:54;;;;;;;10.30;5.68;;;16.00;81.60;;;;;;4975132;28;20389;-69
2024/04/01 00:16:20;;;;;;;11.52;7.00;;;16.20;81.50;;;;;;4981849;28;20046;-67
2024/04/01 00:18:47;;;;;;;15.57;6.85;;;16.20;81.20;;;;;;4966330;28;20038;-68
2024/04/01 00:21:13;;;;;;;14.30;6.68;;;16.10;81.60;;;;;;4954048;28;20050;-68
2024/04/01 00:23:39;;;;;;;14.90;6.68;;;16.00;82.50;;;;;;4973275;28;20037;-69
2024/04/01 00:26:05;;;;;;;13.25;6.15;;;16.10;81.70;;;;;;4973426;28;20038;-68
2024/04/01 00:28:32;;;;;;;21.17;6.50;;;15.90;82.00;;;;;;4975817;28;20038;-67
2024/04/01 00:30:58;;;;;;;15.48;7.00;;;16.00;81.90;;;;;;4973888;28;20030;-69
2024/04/01 00:33:24;;;;;;;14.60;6.03;;;15.70;82.60;;;;;;4976184;28;20397;-69
2024/04/01 00:35:50;;;;;;;15.55;5.70;;;15.60;83.20;;;;;;4984124;28;20030;-69
2024/04/01 00:38:17;;;;;;;12.40;5.72;;;15.60;83.10;;;;;;4973350;28;20061;-69
2024/04/01 00:40:43;;;;;;;14.43;6.68;;;15.70;83.60;;;;;;4973633;28;20023;-69
2024/04/01 00:43:10;;;;;;;14.32;6.65;;;15.90;83.00;;;;;;4979462;28;20108;-67
2024/04/01 00:45:40;;;;;;;14.57;6.50;;;16.00;83.10;;;;;;4976699;28;20050;-68
2024/04/01 00:48:08;;;;;;;12.70;5.60;;;15.90;83.00;;;;;;4973790;28;20036;-68
2024/04/01 00:50:36;;;;;;;15.05;5.90;;;15.90;82.50;;;;;;4976214;28;20470;-69
2024/04/01 00:53:05;;;;;;;15.90;6.15;;;15.60;82.80;;;;;;4974818;28;20046;-68
2024/04/01 00:55:33;;;;;;;13.60;6.18;;;15.30;84.50;;;;;;4981548;28;20030;-66
2024/04/01 00:58:02;;;;;;;15.73;5.70;;;15.60;84.00;;;;;;4972834;28;20049;-69
2024/04/01 01:00:30;;;;;;;10.30;5.85;;;15.90;83.00;;;;;;4976482;28;20026;-71
2024/04/01 01:02:58;;;;;;;17.38;6.97;;;15.70;83.60;;;;;;4972802;28;20398;-69
2024/04/01 01:05:25;;;;;;;13.52;5.80;;;15.40;83.50;;;;;;4973195;28;20030;-69
2024/04/01 01:07:51;;;;;;;14.65;6.05;;;14.90;85.60;;;;;;4979450;28;20087;-69
2024/04/01 01:10:18;;;;;;;15.50;6.32;;;15.10;85.00;;;;;;4979160;28;20045;-67
2024/04/01 01:12:44;;;;;;;17.73;5.68;;;15.20;84.40;;;;;;4972838;28;20076;-69
2024/04/01 01:15:11;;;;;;;12.00;6.20;;;14.80;86.00;;;;;;4982549;28;20380;-66
2024/04/01 01:17:38;;;;;;;13.60;6.03;;;14.70;86.60;;;;;;4976493;28;20473;-70
2024/04/01 01:20:11;;;;;;;8.70;5.68;;;14.60;86.90;;;;;;4981997;28;20038;-68
2024/04/01 01:22:41;;;;;;;16.45;7.30;;;14.60;87.10;;;;;;4974720;28;20386;-67
2024/04/01 01:25:08;;;;;;;13.48;5.95;;;15.00;85.80;;;;;;4981055;28;20037;-67
2024/04/01 01:27:35;;;;;;;11.75;6.03;;;15.20;85.40;;;;;;4977247;28;20426;-69
2024/04/01 01:30:14;;;;;;;14.60;6.43;;;15.30;83.90;;;;;;4973056;28;20049;-68
2024/04/01 01:32:45;;;;;;;11.23;5.70;;;14.80;85.50;;;;;;4973108;28;20381;-69
2024/04/01 01:35:21;;;;;;;13.15;5.32;;;14.50;87.20;;;;;;4988626;28;20035;-68
2024/04/01 01:37:48;;;;;;;14.02;6.40;;;14.50;87.40;;;;;;4965123;28;20057;-69
2024/04/01 01:40:15;;;;;;;12.68;6.05;;;14.40;87.20;;;;;;4963661;28;20042;-67
2024/04/01 01:42:41;;;;;;;16.85;5.85;;;14.70;86.20;;;;;;4957147;28;20079;-69
2024/04/01 01:45:08;;;;;;;14.93;6.07;;;14.90;85.30;;;;;;4963910;28;20385;-70
2024/04/01 01:47:35;;;;;;;13.85;6.30;;;14.70;85.70;;;;;;4972732;28;20080;-69
2024/04/01 01:50:04;;;;;;;11.93;5.35;;;14.40;86.60;;;;;;4985129;28;20035;-69
2024/04/01 01:52:30;;;;;;;11.63;5.85;;;14.10;87.60;;;;;;4971836;28;20051;-68
2024/04/01 01:54:56;;;;;;;10.35;5.55;;;14.10;88.10;;;;;;4963423;28;20045;-69
2024/04/01 01:57:23;;;;;;;11.48;5.93;;;14.40;87.30;;;;;;4978631;28;20080;-70
2024/04/01 01:59:50;;;;;;;14.90;5.53;;;14.70;86.40;;;;;;4972837;28;20061;-68
2024/04/01 02:02:17;;;;;;;11.10;6.40;;;15.00;85.30;;;;;;4967789;28;20038;-69
2024/04/01 02:04:43;;;;;;;12.57;5.57;;;15.10;84.90;;;;;;4972576;28;20049;-69
2024/04/01 02:07:10;;;;;;;12.82;5.65;;;15.10;84.80;;;;;;4973189;28;20084;-69
2024/04/01 02:09:36;;;;;;;15.15;5.40;;;15.10;84.40;;;;;;4956446;28;20042;-67
2024/04/01 02:12:10;;;;;;;17.52;5.72;;;14.70;85.40;;;;;;4968804;28;20030;-69
2024/04/01 02:14:37;;;;;;;10.43;5.55;;;14.60;86.30;;;;;;4972337;28;20042;-69
2024/04/01 02:17:07;;;;;;;13.77;6.03;;;14.60;86.20;;;;;;4968197;28;20031;-67
2024/04/01 02:19:36;;;;;;;15.55;5.68;;;14.40;87.20;;;;;;4972962;28;20044;-69
2024/04/01 02:22:02;;;;;;;12.18;5.85;;;14.30;87.10;;;;;;4996846;28;20026;-66
2024/04/01 02:24:28;;;;;;;12.05;5.85;;;14.30;87.50;;;;;;4991995;28;20057;-67
2024/04/01 02:26:55;;;;;;;14.57;5.90;;;14.40;87.30;;;;;;4972158;28;20046;-70
2024/04/01 02:29:22;;;;;;;13.55;5.20;;;14.60;86.70;;;;;;4972013;28;20084;-69
2024/04/01 02:31:49;;;;;;;12.30;5.60;;;14.70;86.50;;;;;;4971584;28;20026;-69
2024/04/01 02:34:15;;;;;;;15.45;6.10;;;14.90;85.90;;;;;;4971151;28;20038;-69
2024/04/01 02:36:42;;;;;;;14.57;5.15;;;15.10;85.50;;;;;;4974282;28;20473;-69
2024/04/01 02:39:16;;;;;;;10.30;5.47;;;15.20;85.00;;;;;;4981887;28;20035;-69
2024/04/01 02:41:47;;;;;;;10.48;5.05;;;15.20;85.30;;;;;;4971690;28;20031;-69
2024/04/01 02:44:14;;;;;;;13.25;5.13;;;15.20;85.00;;;;;;4971422;28;20038;-69
2024/04/01 02:46:41;;;;;;;11.70;5.15;;;15.20;85.00;;;;;;4971731;28;20026;-69
2024/04/01 02:49:09;;;;;;;12.73;5.43;;;15.20;85.40;;;;;;4983656;28;20038;-69
2024/04/01 02:51:36;;;;;;;11.43;5.85;;;15.10;85.30;;;;;;4971843;28;20035;-70
2024/04/01 02:54:03;;;;;;;11.88;5.07;;;15.20;85.50;;;;;;4971562;28;20046;-67
2024/04/01 02:56:30;;;;;;;16.67;5.35;;;15.20;85.80;;;;;;4989871;28;20034;-68
2024/04/01 02:58:56;;;;;;;13.48;5.40;;;15.20;86.00;;;;;;4970949;28;20034;-68
2024/04/01 03:01:22;;;;;;;10.82;5.40;;;15.10;86.30;;;;;;4971448;28;20029;-69
2024/04/01 03:03:51;;;;;;;13.73;6.43;;;14.90;87.10;;;;;;4954957;28;20042;-69
2024/04/01 03:06:17;;;;;;;10.90;5.20;;;14.90;87.30;;;;;;4971720;28;20354;-67
2024/04/01 03:08:44;;;;;;;13.30;6.35;;;14.80;88.20;;;;;;4967666;28;20477;-69
2024/04/01 03:11:10;;;;;;;17.63;7.50;;;14.90;88.10;;;;;;4971913;28;20043;-69
2024/04/01 03:13:36;;;;;;;16.45;7.15;;;14.90;87.90;;;;;;4983518;28;20045;-69
2024/04/01 03:16:05;;;;;;;19.77;7.05;;;14.90;88.20;;;;;;4971760;28;20034;-69
2024/04/01 03:18:32;;;;;;;10.80;6.50;;;14.80;88.30;;;;;;4967670;28;20037;-69
2024/04/01 03:20:58;;;;;;;17.27;6.82;;;14.80;88.60;;;;;;4971239;28;20038;-69
2024/04/01 03:23:24;;;;;;;14.13;6.80;;;14.70;89.10;;;;;;4979479;28;20034;-67
2024/04/01 03:25:52;;;;;;;16.40;7.55;;;14.80;88.10;;;;;;4971300;28;20034;-67
2024/04/01 03:28:21;;;;;;;12.40;6.05;;;14.70;89.00;;;;;;4962749;28;20034;-69
2024/04/01 03:30:48;;;;;;;14.52;6.55;;;14.50;89.50;;;;;;4976236;28;20050;-68
2024/04/01 03:33:15;;;;;;;13.02;6.57;;;14.20;90.00;;;;;;4960025;28;20030;-69
2024/04/01 03:35:42;;;;;;;12.77;6.35;;;14.20;90.10;;;;;;5021312;28;20034;-68
2024/04/01 03:38:09;;;;;;;10.93;5.38;;;14.40;90.20;;;;;;4976136;28;20046;-69
2024/04/01 03:40:39;;;;;;;13.52;6.63;;;14.60;89.70;;;;;;4971201;28;20109;-69
2024/04/01 03:43:06;;;;;;;11.82;5.65;;;14.80;88.90;;;;;;4965929;28;20379;-69
2024/04/01 03:45:33;;;;;;;19.08;6.57;;;14.80;88.70;;;;;;4981751;28;20083;-68
2024/04/01 03:48:00;;;;;;;14.50;6.30;;;14.60;88.40;;;;;;4990443;28;20042;-68
2024/04/01 03:50:26;;;;;;;14.25;6.47;;;14.30;89.40;;;;;;4983467;28;20057;-69
2024/04/01 03:52:53;;;;;;;16.58;6.57;;;14.50;89.30;;;;;;4976911;28;20045;-71
2024/04/01 03:55:19;;;;;;;16.45;7.30;;;14.50;88.20;;;;;;4958874;28;20484;-67
2024/04/01 03:57:46;;;;;;;15.27;6.15;;;14.40;89.50;;;;;;4974261;28;20433;-70
2024/04/01 04:00:14;;;;;;;12.85;6.10;;;14.30;89.20;;;;;;4974579;28;20058;-68
2024/04/01 04:02:42;;;;;;;12.75;6.15;;;14.10;89.50;;;;;;4973979;28;20031;-68
2024/04/01 04:05:10;;;;;;;16.85;7.20;;;13.80;90.30;;;;;;4973684;28;20359;-68
2024/04/01 04:07:36;;;;;;;11.23;5.50;;;13.70;90.60;;;;;;4973947;28;20395;-67
2024/04/01 04:10:04;;;;;;;17.15;6.55;;;13.90;90.00;;;;;;4974350;28;20084;-67
2024/04/01 04:12:33;;;;;;;13.63;6.35;;;14.00;90.10;;;;;;4974108;28;20173;-69
2024/04/01 04:15:00;;;;;;;16.20;6.57;;;14.10;90.00;;;;;;4973960;28;20035;-68
2024/04/01 04:17:26;;;;;;;15.23;6.45;;;14.20;89.50;;;;;;4974089;28;20034;-69
2024/04/01 04:19:53;;;;;;;15.13;6.25;;;14.10;90.10;;;;;;4986334;28;20037;-68
2024/04/01 04:22:19;;;;;;;14.75;7.55;;;14.20;89.60;;;;;;4974062;28;20034;-68
2024/04/01 04:24:45;;;;;;;12.88;6.75;;;14.30;90.00;;;;;;4974889;28;20037;-68
2024/04/01 04:27:11;;;;;;;11.48;6.22;;;14.20;90.20;;;;;;4981704;28;20034;-68
2024/04/01 04:29:37;;;;;;;13.68;6.05;;;14.50;89.80;;;;;;4975027;28;20484;-66
2024/04/01 04:32:14;;;;;;;12.95;6.60;;;14.40;89.70;;;;;;4980310;28;20038;-68
2024/04/01 04:34:41;;;;;;;12.00;5.80;;;14.60;89.60;;;;;;4975095;28;20037;-67
2024/04/01 04:37:07;;;;;;;12.57;6.15;;;14.70;89.40;;;;;;4983920;28;20053;-69
2024/04/01 04:39:37;;;;;;;17.77;5.85;;;14.70;89.10;;;;;;4974710;28;20045;-67
2024/04/01 04:42:03;;;;;;;14.85;6.18;;;14.50;88.70;;;;;;4973043;28;20047;-71
2024/04/01 04:44:30;;;;;;;12.93;5.85;;;14.50;89.40;;;;;;4974070;28;20404;-68
2024/04/01 04:46:59;;;;;;;10.30;5.38;;;14.60;89.20;;;;;;4955639;28;20075;-69
2024/04/01 04:49:25;;;;;;;14.50;5.43;;;14.40;88.80;;;;;;4966886;28;20091;-66
2024/04/01 04:51:52;;;;;;;11.70;6.03;;;14.50;88.80;;;;;;4958884;28;20073;-68
2024/04/01 04:54:18;;;;;;;11.38;5.50;;;14.50;88.20;;;;;;4966900;28;20069;-66
2024/04/01 04:56:44;;;;;;;17.63;6.97;;;14.40;89.30;;;;;;4975653;28;20042;-69
2024/04/01 04:59:10;;;;;;;44.28;23.35;;;14.30;88.30;;;;;;4965613;28;20053;-69
2024/04/01 05:01:37;;;;;;;49.33;24.83;;;14.50;89.90;;;;;;4973423;28;20400;-69
2024/04/01 05:04:04;;;;;;;21.65;9.88;;;14.80;89.30;;;;;;4973444;28;20053;-68
2024/04/01 05:06:31;;;;;;;12.52;7.10;;;14.90;88.30;;;;;;4991298;28;20041;-68
2024/04/01 05:08:58;;;;;;;11.52;6.45;;;14.90;88.00;;;;;;4977217;28;20049;-70
2024/04/01 05:11:24;;;;;;;48.78;26.30;;;15.00;88.30;;;;;;4975381;28;20030;-71
2024/04/01 05:13:51;;;;;;;67.00;39.10;;;15.00;88.00;;;;;;4978525;28;20072;-71
2024/04/01 05:16:17;;;;;;;38.10;22.10;;;15.20;88.00;;;;;;4980952;28;20042;-69
2024/04/01 05:18:46;;;;;;;25.33;12.68;;;15.40;86.30;;;;;;4975299;28;20056;-69
2024/04/01 05:21:12;;;;;;;14.38;6.53;;;15.40;85.50;;;;;;4982323;28;20076;-69
2024/04/01 05:23:38;;;;;;;9.35;5.63;;;14.90;86.20;;;;;;4972100;28;20039;-70
2024/04/01 05:26:07;;;;;;;14.40;6.07;;;14.40;87.50;;;;;;4971265;28;20030;-70
2024/04/01 05:28:34;;;;;;;16.05;6.85;;;14.20;88.50;;;;;;4977656;28;20061;-70
2024/04/01 05:31:01;;;;;;;14.48;6.47;;;14.40;88.30;;;;;;4975583;28;20049;-69
2024/04/01 05:33:33;;;;;;;12.90;5.95;;;14.60;87.80;;;;;;4969227;28;20060;-68
2024/04/01 05:36:03;;;;;;;14.57;5.90;;;14.90;86.80;;;;;;4972682;28;20038;-69
2024/04/01 05:38:29;;;;;;;14.57;7.10;;;14.90;86.90;;;;;;4984230;28;20038;-69
2024/04/01 05:40:55;;;;;;;14.57;7.60;;;14.80;87.90;;;;;;4974707;28;20370;-71
2024/04/01 05:43:22;;;;;;;23.10;8.50;;;14.90;88.60;;;;;;4974040;28;20064;-70
2024/04/01 05:45:49;;;;;;;21.02;9.07;;;14.70;90.00;;;;;;4967863;28;20465;-69
2024/04/01 05:48:17;;;;;;;25.45;9.43;;;14.30;90.40;;;;;;4973963;28;20030;-68
2024/04/01 05:50:51;;;;;;;23.70;10.13;;;14.30;90.90;;;;;;4964918;28;20039;-71
2024/04/01 05:53:17;;;;;;;22.23;9.52;;;14.70;90.50;;;;;;4972336;28;20535;-70
2024/04/01 05:55:44;;;;;;;22.52;9.65;;;14.90;89.50;;;;;;4978961;28;20103;-70
2024/04/01 05:58:10;;;;;;;25.48;9.60;;;14.90;88.90;;;;;;4974805;28;20030;-70
2024/04/01 06:00:37;;;;;;;20.42;8.85;;;14.70;89.70;;;;;;4975118;28;20095;-71
2024/04/01 06:03:05;;;;;;;18.60;8.45;;;14.90;89.60;;;;;;4951515;28;20439;-70
2024/04/01 06:05:32;;;;;;;20.60;8.48;;;14.90;88.60;;;;;;4972254;28;20377;-69
2024/04/01 06:07:59;;;;;;;80.10;45.88;;;14.90;88.20;;;;;;4974350;28;20076;-70
2024/04/01 06:10:26;;;;;;;32.60;15.70;;;15.10;89.10;;;;;;4980337;28;20119;-69
2024/04/01 06:12:54;;;;;;;33.85;16.27;;;15.10;88.00;;;;;;4988287;28;20042;-67
2024/04/01 06:15:24;;;;;;;17.40;8.73;;;15.10;88.00;;;;;;4974749;28;20042;-70
2024/04/01 06:17:53;;;;;;;19.38;7.38;;;15.10;87.60;;;;;;4972310;28;20030;-68
2024/04/01 06:20:19;;;;;;;20.50;7.65;;;15.10;87.60;;;;;;4982968;28;20447;-70
2024/04/01 06:22:46;;;;;;;14.52;7.28;;;15.30;87.20;;;;;;4980611;28;20091;-69
2024/04/01 06:25:13;;;;;;;12.65;6.55;;;15.50;86.80;;;;;;4965053;28;20048;-70
2024/04/01 06:27:39;;;;;;;21.10;6.63;;;15.60;87.00;;;;;;4972481;28;20514;-69
2024/04/01 06:30:07;;;;;;;18.38;7.05;;;15.60;86.60;;;;;;4971635;28;20377;-68
2024/04/01 06:32:33;;;;;;;17.75;7.13;;;15.50;86.70;;;;;;4955824;28;20042;-69
2024/04/01 06:35:00;;;;;;;14.05;7.88;;;15.60;87.00;;;;;;4959880;28;20370;-69
2024/04/01 06:37:27;;;;;;;24.05;7.93;;;15.60;87.60;;;;;;4971699;28;20030;-70
2024/04/01 06:39:54;;;;;;;21.05;7.47;;;15.40;87.60;;;;;;4970508;28;20046;-69
2024/04/01 06:42:20;;;;;;;18.38;8.43;;;15.30;88.30;;;;;;4978882;28;20030;-68
2024/04/01 06:44:50;;;;;;;19.02;7.93;;;15.30;88.80;;;;;;4973872;28;20046;-68
2024/04/01 06:47:16;;;;;;;16.20;7.63;;;15.50;87.60;;;;;;4969842;28;20041;-68
2024/04/01 06:49:43;;;;;;;16.83;7.30;;;15.20;88.10;;;;;;4967241;28;20034;-69
2024/04/01 06:52:09;;;;;;;15.07;8.32;;;15.50;88.10;;;;;;4969919;28;20037;-67
2024/04/01 06:54:36;;;;;;;14.60;7.63;;;15.60;88.00;;;;;;4982883;28;20478;-67
2024/04/01 06:57:02;;;;;;;23.15;8.52;;;15.70;87.70;;;;;;4971319;28;20031;-68
2024/04/01 06:59:29;;;;;;;17.92;7.68;;;15.80;87.10;;;;;;4971742;28;20034;-67
2024/04/01 07:01:55;;;;;;;18.83;9.00;;;15.70;87.30;;;;;;4975314;28;20029;-68
2024/04/01 07:04:22;;;;;;;17.90;8.05;;;15.80;87.00;;;;;;4961661;28;20045;-68
2024/04/01 07:06:48;;;;;;;22.92;7.85;;;15.80;86.30;;;;;;4985790;28;20085;-68
2024/04/01 07:09:14;;;;;;;17.23;7.97;;;15.80;86.70;;;;;;4955202;28;20054;-68
2024/04/01 07:11:41;;;;;;;17.92;7.60;;;15.70;87.60;;;;;;4983324;28;20380;-67
2024/04/01 07:14:07;;;;;;;21.70;8.00;;;15.70;87.40;;;;;;4971673;28;20050;-68
2024/04/01 07:16:33;;;;;;;22.50;8.65;;;15.60;87.40;;;;;;4971886;28;20420;-68
2024/04/01 07:19:00;;;;;;;13.10;7.55;;;15.70;87.60;;;;;;4971320;28;20034;-69
2024/04/01 07:21:26;;;;;;;17.27;8.07;;;15.60;86.60;;;;;;4964671;28;20128;-69
2024/04/01 07:23:52;;;;;;;21.50;8.77;;;15.60;86.60;;;;;;4977814;28;20045;-68
2024/04/01 07:26:19;;;;;;;19.25;8.40;;;15.60;86.60;;;;;;4958647;28;20035;-68
2024/04/01 07:28:46;;;;;;;21.23;8.35;;;15.50;86.70;;;;;;5044290;28;20061;-67
2024/04/01 07:31:12;;;;;;;18.92;8.50;;;15.60;86.70;;;;;;4982434;28;20350;-68
2024/04/01 07:33:39;;;;;;;20.48;8.73;;;15.80;86.20;;;;;;4979908;28;20058;-67
2024/04/01 07:36:06;;;;;;;19.75;8.45;;;15.80;85.60;;;;;;5056499;28;20049;-67
2024/04/01 07:38:32;;;;;;;22.20;8.15;;;15.70;85.70;;;;;;4994401;28;20034;-67
2024/04/01 07:40:58;;;;;;;20.80;9.13;;;15.90;86.10;;;;;;4986038;28;20087;-70
2024/04/01 07:43:25;;;;;;;19.38;8.60;;;16.10;85.20;;;;;;4976845;28;20034;-69
2024/04/01 07:45:52;;;;;;;17.80;7.63;;;16.30;84.70;;;;;;4977889;28;20034;-68
2024/04/01 07:48:18;;;;;;;24.75;8.48;;;16.40;84.90;;;;;;5045450;28;20386;-67
2024/04/01 07:50:47;;;;;;;16.75;7.65;;;16.40;84.10;;;;;;4966941;28;20428;-68
2024/04/01 07:53:14;;;;;;;26.17;8.68;;;16.20;84.90;;;;;;4978793;28;20095;-68
2024/04/01 07:55:41;;;;;;;25.75;9.23;;;16.20;85.10;;;;;;4949910;28;20083;-67
2024/04/01 07:58:07;;;;;;;22.00;7.72;;;16.30;85.00;;;;;;4982267;28;20037;-68
2024/04/01 08:00:37;;;;;;;27.02;8.85;;;16.50;84.70;;;;;;4983414;28;20042;-69
2024/04/01 08:03:03;;;;;;;20.43;8.50;;;16.60;84.20;;;;;;4973491;28;20026;-68
2024/04/01 08:05:30;;;;;;;18.08;7.78;;;16.80;83.40;;;;;;4966038;28;20056;-68
2024/04/01 08:07:56;;;;;;;15.30;8.00;;;17.00;83.00;;;;;;4977615;28;20037;-67
2024/04/01 08:10:23;;;;;;;18.55;7.68;;;17.20;82.70;;;;;;4976691;28;20481;-67
2024/04/01 08:12:49;;;;;;;21.02;9.35;;;17.30;82.20;;;;;;4973209;28;20607;-68
2024/04/01 08:15:15;;;;;;;21.08;8.20;;;17.30;82.20;;;;;;4980108;28;20061;-69
2024/04/01 08:17:42;;;;;;;23.05;8.40;;;17.40;81.40;;;;;;4979408;28;20026;-69
2024/04/01 08:20:09;;;;;;;19.02;8.10;;;17.40;81.90;;;;;;4976730;28;20565;-69
2024/04/01 08:22:35;;;;;;;23.60;8.93;;;17.50;82.00;;;;;;4973397;28;20038;-69
2024/04/01 08:25:02;;;;;;;18.55;8.25;;;17.70;81.10;;;;;;4989450;28;20493;-69
2024/04/01 08:27:29;;;;;;;22.95;7.75;;;17.80;80.00;;;;;;4968412;28;20034;-69
2024/04/01 08:29:55;;;;;;;24.00;9.45;;;17.90;78.70;;;;;;4982520;28;20076;-70
2024/04/01 08:32:22;;;;;;;18.25;7.65;;;18.00;78.30;;;;;;4975841;28;20036;-69
2024/04/01 08:34:48;;;;;;;24.55;8.82;;;18.00;77.80;;;;;;4973257;28;20084;-69
2024/04/01 08:37:15;;;;;;;23.27;9.00;;;17.90;78.40;;;;;;4980959;28;20030;-70
2024/04/01 08:39:41;;;;;;;23.60;7.72;;;18.00;78.10;;;;;;4984493;28;20075;-68
2024/04/01 08:42:13;;;;;;;17.23;8.15;;;18.30;78.20;;;;;;4978405;28;20084;-66
2024/04/01 08:44:41;;;;;;;21.88;9.40;;;17.70;78.40;;;;;;4973556;28;20045;-69
2024/04/01 08:47:08;;;;;;;18.95;7.85;;;17.70;78.80;;;;;;4982025;28;20083;-69
2024/04/01 08:50:10;;;;;;;20.85;7.75;;;17.80;78.40;;;;;;4960548;28;20485;-69
2024/04/01 08:52:52;;;;;;;19.42;7.78;;;18.30;77.50;;;;;;4976064;28;20485;-69
2024/04/01 08:55:23;;;;;;;13.65;7.10;;;18.90;76.20;;;;;;4976406;28;20039;-69
2024/04/01 08:57:50;;;;;;;18.35;7.28;;;19.00;75.80;;;;;;4978435;28;20049;-68
2024/04/01 09:00:18;;;;;;;14.88;6.78;;;18.90;75.70;;;;;;4979787;28;20026;-69
2024/04/01 09:02:44;;;;;;;17.33;6.97;;;18.90;76.10;;;;;;4977818;28;20025;-70
2024/04/01 09:05:11;;;;;;;19.98;8.32;;;18.60;75.70;;;;;;4962268;28;20370;-70
2024/04/01 09:07:37;;;;;;;19.42;6.75;;;18.70;76.60;;;;;;4978725;28;20033;-69
2024/04/01 09:10:04;;;;;;;17.65;6.82;;;19.00;75.70;;;;;;4988687;28;20083;-70
2024/04/01 09:12:30;;;;;;;17.20;7.28;;;19.20;75.10;;;;;;4978194;28;20030;-69
2024/04/01 09:14:56;;;;;;;15.63;7.65;;;19.40;75.10;;;;;;4992932;28;20033;-69
2024/04/01 09:17:26;;;;;;;19.95;6.88;;;19.60;75.20;;;;;;4972900;28;20512;-69
2024/04/01 09:19:59;;;;;;;20.08;8.15;;;19.80;74.40;;;;;;4973273;28;20037;-69
2024/04/01 09:22:26;;;;;;;18.35;7.07;;;20.10;73.30;;;;;;4989321;28;20137;-70
2024/04/01 09:24:52;;;;;;;14.90;7.47;;;20.10;72.70;;;;;;4973074;28;20038;-71
2024/04/01 09:27:23;;;;;;;19.50;6.75;;;20.10;73.40;;;;;;4972793;28;20682;-71
2024/04/01 09:29:49;;;;;;;19.55;6.97;;;20.10;73.00;;;;;;4975523;28;20038;-70
2024/04/01 09:32:16;;;;;;;16.15;6.22;;;20.50;72.30;;;;;;4973473;28;20027;-71
2024/04/01 09:34:42;;;;;;;20.88;7.45;;;20.70;71.40;;;;;;4973194;28;20030;-70
2024/04/01 09:37:09;;;;;;;22.98;5.53;;;21.10;70.90;;;;;;4980564;28;20029;-69
2024/04/01 09:39:40;;;;;;;15.93;6.00;;;21.60;70.00;;;;;;4972161;28;20030;-69
2024/04/01 09:42:09;;;;;;;16.98;6.38;;;21.80;68.70;;;;;;4997851;28;20072;-69
2024/04/01 09:44:35;;;;;;;17.83;6.17;;;21.60;70.20;;;;;;4983575;28;20107;-72
2024/04/01 09:47:05;;;;;;;20.33;6.60;;;22.10;67.60;;;;;;4986283;28;20053;-69
2024/04/01 09:49:32;;;;;;;19.17;6.53;;;22.20;67.00;;;;;;4977616;28;20034;-70
2024/04/01 09:52:00;;;;;;;17.85;5.47;;;22.50;66.10;;;;;;4973872;28;20057;-70
2024/04/01 09:54:27;;;;;;;17.23;5.80;;;22.40;65.30;;;;;;4955978;28;20397;-72
2024/04/01 09:56:56;;;;;;;19.13;5.30;;;22.40;66.60;;;;;;4965920;28;20034;-70
2024/04/01 09:59:25;;;;;;;17.88;5.75;;;22.60;65.70;;;;;;4975262;28;20030;-70
2024/04/01 10:02:29;;;;;;;13.77;5.07;;;22.80;65.10;;;;;;4972108;28;20383;-71
2024/04/01 10:04:58;;;;;;;15.88;4.97;;;23.00;65.40;;;;;;4977208;28;20049;-70
2024/04/01 10:07:49;;;;;;;12.93;5.53;;;22.90;64.70;;;;;;4975214;28;20030;-71
2024/04/01 10:10:30;;;;;;;16.63;5.03;;;23.00;62.40;;;;;;4972372;28;20473;-72
2024/04/01 10:13:14;;;;;;;15.77;4.90;;;22.90;63.00;;;;;;4979359;28;20034;-71
2024/04/01 10:15:59;;;;;;;17.42;5.70;;;23.20;62.00;;;;;;4972345;28;20041;-70
2024/04/01 10:18:46;;;;;;;17.45;5.22;;;23.40;62.10;;;;;;4972238;28;20042;-71
2024/04/01 10:21:34;;;;;;;15.05;5.30;;;23.40;61.00;;;;;;4982007;28;20087;-72
2024/04/01 10:24:29;;;;;;;15.98;4.90;;;23.30;62.30;;;;;;4972246;28;20030;-71
2024/04/01 10:27:29;;;;;;;21.20;5.38;;;23.30;61.50;;;;;;4983643;28;20038;-71
2024/04/01 10:30:33;;;;;;;18.48;5.20;;;23.40;60.90;;;;;;4977477;28;20104;-70
2024/04/01 10:33:32;;;;;;;14.63;4.25;;;23.70;61.00;;;;;;4971682;28;20034;-70
2024/04/01 10:36:08;;;;;;;17.13;4.70;;;23.90;60.70;;;;;;4972337;28;20038;-70
2024/04/01 10:39:05;;;;;;;17.50;5.13;;;23.90;59.70;;;;;;4956076;28;20481;-70
2024/04/01 10:42:06;;;;;;;18.42;5.18;;;24.00;59.70;;;;;;4968315;28;20030;-69
2024/04/01 10:45:05;;;;;;;18.10;5.07;;;24.00;58.70;;;;;;4971961;28;20398;-69
2024/04/01 10:48:05;;;;;;;14.25;4.25;;;23.70;58.60;;;;;;4972380;28;20042;-71
2024/04/01 10:51:08;;;;;;;13.07;5.00;;;23.70;59.50;;;;;;4972198;28;20030;-69
2024/04/01 10:54:03;;;;;;;15.30;5.10;;;23.70;60.80;;;;;;4976016;28;20038;-71
2024/04/01 10:56:54;;;;;;;17.58;5.32;;;24.10;60.00;;;;;;4984220;28;20030;-68
2024/04/01 10:59:45;;;;;;;16.05;5.22;;;24.50;60.30;;;;;;4972149;28;20046;-72
2024/04/01 11:02:50;;;;;;;12.15;4.78;;;24.70;61.40;;;;;;4971038;28;20038;-70
2024/04/01 11:05:16;;;;;;;17.20;4.68;;;24.70;61.40;;;;;;4932856;28;20042;-72
2024/04/01 11:07:51;;;;;;;13.02;4.40;;;24.60;58.80;;;;;;5035829;28;20038;-69
2024/04/01 11:10:26;;;;;;;10.18;5.25;;;24.50;58.70;;;;;;4971796;28;20038;-72
2024/04/01 11:13:11;;;;;;;19.75;5.63;;;24.40;58.70;;;;;;4965870;28;20050;-71
2024/04/01 11:15:39;;;;;;;16.55;4.80;;;24.90;59.00;;;;;;4969969;28;20037;-70
2024/04/01 11:18:14;;;;;;;14.57;4.40;;;25.50;58.80;;;;;;4971291;28;20022;-70
2024/04/01 11:20:48;;;;;;;17.40;5.20;;;24.80;55.70;;;;;;4974431;28;20069;-68
2024/04/01 11:23:15;;;;;;;18.90;4.95;;;24.70;57.10;;;;;;4974144;28;20103;-69
2024/04/01 11:25:43;;;;;;;10.88;4.40;;;24.70;56.00;;;;;;4978233;28;20034;-70
2024/04/01 11:28:34;;;;;;;16.60;5.45;;;25.20;56.90;;;;;;4971866;28;20370;-69
2024/04/01 11:31:13;;;;;;;18.50;4.88;;;25.60;54.30;;;;;;4972589;28;20030;-68
2024/04/01 11:34:09;;;;;;;18.98;4.53;;;25.70;53.90;;;;;;4973544;28;20482;-70
2024/04/01 11:37:03;;;;;;;19.88;4.43;;;25.90;55.10;;;;;;4973481;28;20052;-69
2024/04/01 11:39:31;;;;;;;18.95;4.68;;;26.00;54.50;;;;;;4971444;28;20034;-69
2024/04/01 11:42:00;;;;;;;14.70;3.95;;;26.10;54.30;;;;;;4971203;28;20057;-70
2024/04/01 11:44:28;;;;;;;17.33;4.57;;;26.20;54.70;;;;;;4971104;28;20084;-70
2024/04/01 11:46:58;;;;;;;19.88;5.00;;;26.20;55.60;;;;;;4988457;28;20039;-70
2024/04/01 11:49:24;;;;;;;18.60;4.53;;;26.20;53.30;;;;;;4972083;28;20551;-70
2024/04/01 11:51:54;;;;;;;24.88;4.25;;;25.70;53.90;;;;;;4959500;28;20107;-71
2024/04/01 11:54:24;;;;;;;15.73;4.10;;;26.20;52.70;;;;;;4981268;28;20053;-70
2024/04/01 11:56:51;;;;;;;20.83;4.47;;;26.60;52.50;;;;;;4965758;28;20499;-70
2024/04/01 11:59:28;;;;;;;13.05;3.83;;;26.90;51.40;;;;;;4971879;28;20042;-70
2024/04/01 12:01:54;;;;;;;16.42;4.30;;;27.00;51.20;;;;;;4984414;28;20481;-69
2024/04/01 12:04:21;;;;;;;12.15;3.97;;;27.20;51.40;;;;;;4980010;28;20531;-70
2024/04/01 12:06:48;;;;;;;16.77;4.97;;;27.40;51.50;;;;;;4978508;28;20104;-69
2024/04/01 12:09:17;;;;;;;17.08;4.60;;;27.80;51.30;;;;;;4985065;28;20033;-69
2024/04/01 12:11:44;;;;;;;18.05;4.00;;;27.20;50.40;;;;;;4975361;28;20396;-69
2024/04/01 12:14:10;;;;;;;18.70;4.00;;;27.10;50.70;;;;;;4977430;28;20151;-69
2024/04/01 12:16:37;;;;;;;16.40;4.28;;;27.30;50.60;;;;;;4979523;28;20046;-70
2024/04/01 12:19:08;;;;;;;13.23;3.60;;;27.20;51.50;;;;;;4974360;28;20038;-71
2024/04/01 12:21:34;;;;;;;18.25;4.10;;;27.80;51.60;;;;;;4981687;28;20038;-73
2024/04/01 12:24:04;;;;;;;12.93;3.92;;;28.40;50.80;;;;;;4986160;28;20430;-70
2024/04/01 12:26:39;;;;;;;14.98;4.60;;;28.90;50.50;;;;;;4974250;28;20046;-68
2024/04/01 12:29:06;;;;;;;16.27;4.18;;;29.20;50.00;;;;;;4975663;28;20038;-70
2024/04/01 12:31:36;;;;;;;17.95;4.18;;;28.60;50.10;;;;;;4973279;28;20031;-69
2024/04/01 12:34:02;;;;;;;15.00;4.60;;;29.10;50.90;;;;;;4977375;28;20452;-70
2024/04/01 12:36:31;;;;;;;17.35;4.45;;;29.50;50.40;;;;;;4975225;28;20038;-70
2024/04/01 12:38:58;;;;;;;16.00;3.90;;;30.60;49.60;;;;;;4982721;28;20397;-70
2024/04/01 12:41:27;;;;;;;18.38;4.47;;;29.80;49.50;;;;;;4979752;28;20465;-71
2024/04/01 12:43:55;;;;;;;15.35;4.13;;;28.90;50.00;;;;;;4978982;28;20462;-70
2024/04/01 12:46:23;;;;;;;13.45;4.72;;;28.90;51.10;;;;;;4976546;28;20072;-70
2024/04/01 12:48:55;;;;;;;18.05;4.40;;;28.70;51.60;;;;;;4984424;28;20026;-69